KOWB/OWB METAR and TAF weather

Enter ICAO airport designator
Station Type Date Time Source
KOWB METAR 2020/04/05 18:56 UTC NOAA

KOWB 051856Z 33006KT 10SM SCT028 18/12 A3010 RMK AO2 SLP192 T01830117


Station Type Date Time Source
KOWB Decoded METAR 2020/04/05 18:56 UTC NOAA

Owensboro, Owensboro-Daviess County Airport, KY, United States (KOWB) 37-44-24N 087-10-00W
Apr 05, 2020 - 02:56 PM EDT / 2020.04.05 1856 UTC
Wind: from the NNW (330 degrees) at 7 MPH (6 KT):0
Visibility: 10 mile(s):0
Sky conditions: partly cloudy
Temperature: 64.9 F (18.3 C)
Dew Point: 53.1 F (11.7 C)
Relative Humidity: 65%
Pressure (altimeter): 30.1 in. Hg (1019 hPa)
ob: KOWB 051856Z 33006KT 10SM SCT028 18/12 A3010 RMK AO2 SLP192 T01830117
cycle: 19

Station Type Date Time Source
KOWB TAF 2020/04/05 18:22 UTC NOAA

TAF KOWB 051720Z 0518/0618 VRB04KT P6SM SCT025 BKN035
TEMPO 0518/0522 BKN025
FM060600 00000KT P6SM BKN025
TEMPO 0608/0612 5SM BR
FM061500 19006KT P6SM BKN030

Example: see airport list